sensor_id;sensor_type;location;lat;lon;timestamp;pressure;altitude;pressure_sealevel;temperature;humidity
41078;BME280;26823;42.662;23.352;2022-12-10T00:02:19;94154.78;;;8.24;89.86
41078;BME280;26823;42.662;23.352;2022-12-10T00:04:44;94135.44;;;8.12;90.74
41078;BME280;26823;42.662;23.352;2022-12-10T00:07:10;94145.88;;;7.79;91.84
41078;BME280;26823;42.662;23.352;2022-12-10T00:09:35;94138.97;;;8.12;91.82
41078;BME280;26823;42.662;23.352;2022-12-10T00:12:01;94137.69;;;7.99;91.23
41078;BME280;26823;42.662;23.352;2022-12-10T00:14:26;94128.31;;;7.92;91.55
41078;BME280;26823;42.662;23.352;2022-12-10T00:16:51;94144.78;;;7.80;93.21
41078;BME280;26823;42.662;23.352;2022-12-10T00:19:17;94115.94;;;7.91;93.21
41078;BME280;26823;42.662;23.352;2022-12-10T00:21:43;94132.00;;;8.06;91.98
41078;BME280;26823;42.662;23.352;2022-12-10T00:24:09;94108.50;;;8.12;91.71
41078;BME280;26823;42.662;23.352;2022-12-10T00:26:37;94129.22;;;8.16;91.37
41078;BME280;26823;42.662;23.352;2022-12-10T00:29:10;94106.44;;;8.04;92.06
41078;BME280;26823;42.662;23.352;2022-12-10T00:31:37;94110.38;;;8.16;91.91
41078;BME280;26823;42.662;23.352;2022-12-10T00:34:06;94123.38;;;8.04;91.29
41078;BME280;26823;42.662;23.352;2022-12-10T00:36:39;94084.31;;;7.67;92.14
41078;BME280;26823;42.662;23.352;2022-12-10T00:39:05;94136.94;;;7.89;92.06
41078;BME280;26823;42.662;23.352;2022-12-10T00:41:31;94145.75;;;8.05;92.33
41078;BME280;26823;42.662;23.352;2022-12-10T00:43:57;94130.44;;;7.95;92.50
41078;BME280;26823;42.662;23.352;2022-12-10T00:46:22;94112.69;;;7.94;92.95
41078;BME280;26823;42.662;23.352;2022-12-10T00:48:48;94135.78;;;8.05;92.60
41078;BME280;26823;42.662;23.352;2022-12-10T00:51:21;94131.53;;;7.94;92.62
41078;BME280;26823;42.662;23.352;2022-12-10T00:53:49;94112.69;;;7.94;93.12
41078;BME280;26823;42.662;23.352;2022-12-10T00:56:18;94155.47;;;8.00;92.73
41078;BME280;26823;42.662;23.352;2022-12-10T00:58:44;94136.47;;;7.76;93.33
41078;BME280;26823;42.662;23.352;2022-12-10T01:01:15;94105.53;;;7.74;93.43
41078;BME280;26823;42.662;23.352;2022-12-10T01:03:41;94164.69;;;7.84;93.53
41078;BME280;26823;42.662;23.352;2022-12-10T01:06:13;94138.31;;;7.86;94.17
41078;BME280;26823;42.662;23.352;2022-12-10T01:08:39;94114.09;;;7.81;93.89
41078;BME280;26823;42.662;23.352;2022-12-10T01:11:05;94126.75;;;7.86;93.73
41078;BME280;26823;42.662;23.352;2022-12-10T01:13:31;94141.22;;;7.95;93.45
41078;BME280;26823;42.662;23.352;2022-12-10T01:15:56;94129.88;;;8.03;94.10
41078;BME280;26823;42.662;23.352;2022-12-10T01:18:24;94105.69;;;7.93;93.53
41078;BME280;26823;42.662;23.352;2022-12-10T01:20:49;94136.81;;;8.09;93.49
41078;BME280;26823;42.662;23.352;2022-12-10T01:23:15;94114.97;;;8.16;92.63
41078;BME280;26823;42.662;23.352;2022-12-10T01:25:40;94115.72;;;8.22;92.77
41078;BME280;26823;42.662;23.352;2022-12-10T01:28:06;94131.69;;;8.13;92.14
41078;BME280;26823;42.662;23.352;2022-12-10T01:30:32;94108.09;;;7.99;93.89
41078;BME280;26823;42.662;23.352;2022-12-10T01:32:57;94115.09;;;7.95;94.06
41078;BME280;26823;42.662;23.352;2022-12-10T01:35:22;94082.31;;;7.88;93.90
41078;BME280;26823;42.662;23.352;2022-12-10T01:37:48;94110.78;;;7.99;93.68
41078;BME280;26823;42.662;23.352;2022-12-10T01:40:13;94118.25;;;8.08;93.08
41078;BME280;26823;42.662;23.352;2022-12-10T01:42:39;94100.00;;;7.99;93.37
41078;BME280;26823;42.662;23.352;2022-12-10T01:45:08;94131.41;;;8.14;93.28
41078;BME280;26823;42.662;23.352;2022-12-10T01:47:34;94112.72;;;8.28;92.39
41078;BME280;26823;42.662;23.352;2022-12-10T01:50:00;94115.75;;;8.16;92.44
41078;BME280;26823;42.662;23.352;2022-12-10T01:52:27;94099.59;;;8.16;92.95
41078;BME280;26823;42.662;23.352;2022-12-10T01:54:52;94105.53;;;8.19;92.23
41078;BME280;26823;42.662;23.352;2022-12-10T01:57:21;94097.13;;;8.25;92.87
41078;BME280;26823;42.662;23.352;2022-12-10T01:59:57;94111.88;;;8.33;92.02
41078;BME280;26823;42.662;23.352;2022-12-10T02:15:52;94105.31;;;8.44;91.16
41078;BME280;26823;42.662;23.352;2022-12-10T02:18:32;94138.63;;;8.64;90.67
41078;BME280;26823;42.662;23.352;2022-12-10T02:21:06;94101.53;;;8.45;92.27
41078;BME280;26823;42.662;23.352;2022-12-10T02:23:41;94085.22;;;8.31;92.39
41078;BME280;26823;42.662;23.352;2022-12-10T02:31:19;94085.94;;;8.42;92.46
41078;BME280;26823;42.662;23.352;2022-12-10T02:33:50;94070.31;;;8.39;92.28
41078;BME280;26823;42.662;23.352;2022-12-10T02:36:18;94081.00;;;8.55;92.36
41078;BME280;26823;42.662;23.352;2022-12-10T02:38:47;94082.63;;;8.56;92.21
41078;BME280;26823;42.662;23.352;2022-12-10T02:41:19;94094.38;;;8.65;92.34
41078;BME280;26823;42.662;23.352;2022-12-10T02:43:49;94068.25;;;8.65;92.11
41078;BME280;26823;42.662;23.352;2022-12-10T02:46:16;94075.31;;;8.61;91.87
41078;BME280;26823;42.662;23.352;2022-12-10T02:48:42;94079.91;;;8.56;92.12
41078;BME280;26823;42.662;23.352;2022-12-10T02:51:07;94070.41;;;8.63;92.44
41078;BME280;26823;42.662;23.352;2022-12-10T02:53:33;94059.72;;;8.53;92.46
41078;BME280;26823;42.662;23.352;2022-12-10T02:59:37;94081.38;;;8.72;91.72
41078;BME280;26823;42.662;23.352;2022-12-10T03:07:34;94033.44;;;8.35;92.69
41078;BME280;26823;42.662;23.352;2022-12-10T03:10:17;94080.16;;;8.59;93.27
41078;BME280;26823;42.662;23.352;2022-12-10T03:12:48;94081.72;;;8.65;93.18
41078;BME280;26823;42.662;23.352;2022-12-10T03:15:16;94078.75;;;8.67;92.31
41078;BME280;26823;42.662;23.352;2022-12-10T03:17:44;94083.03;;;8.68;92.86
41078;BME280;26823;42.662;23.352;2022-12-10T03:20:13;94038.16;;;8.53;92.68
41078;BME280;26823;42.662;23.352;2022-12-10T03:22:42;94050.50;;;8.59;92.27
41078;BME280;26823;42.662;23.352;2022-12-10T03:25:10;94063.19;;;8.59;92.30
41078;BME280;26823;42.662;23.352;2022-12-10T03:27:39;94077.22;;;8.56;92.42
41078;BME280;26823;42.662;23.352;2022-12-10T03:30:07;94080.63;;;8.67;91.62
41078;BME280;26823;42.662;23.352;2022-12-10T03:32:33;94089.41;;;8.77;91.72
41078;BME280;26823;42.662;23.352;2022-12-10T03:34:59;94063.88;;;8.70;92.88
41078;BME280;26823;42.662;23.352;2022-12-10T03:37:27;94057.41;;;8.71;92.58
41078;BME280;26823;42.662;23.352;2022-12-10T03:39:54;94069.50;;;8.73;92.28
41078;BME280;26823;42.662;23.352;2022-12-10T03:42:20;94058.09;;;8.81;91.10
41078;BME280;26823;42.662;23.352;2022-12-10T03:44:49;94062.19;;;9.03;90.74
41078;BME280;26823;42.662;23.352;2022-12-10T03:47:15;94056.34;;;8.96;90.60
41078;BME280;26823;42.662;23.352;2022-12-10T03:49:42;94061.56;;;9.11;90.58
41078;BME280;26823;42.662;23.352;2022-12-10T03:52:07;94039.75;;;9.08;90.45
41078;BME280;26823;42.662;23.352;2022-12-10T03:54:33;94046.75;;;9.09;90.20
41078;BME280;26823;42.662;23.352;2022-12-10T03:56:58;94051.00;;;9.15;90.17
41078;BME280;26823;42.662;23.352;2022-12-10T03:59:24;94036.34;;;9.21;89.56
41078;BME280;26823;42.662;23.352;2022-12-10T04:01:49;94039.19;;;9.11;90.74
41078;BME280;26823;42.662;23.352;2022-12-10T04:04:14;94014.34;;;8.90;90.99
41078;BME280;26823;42.662;23.352;2022-12-10T04:06:41;94046.91;;;9.18;90.87
41078;BME280;26823;42.662;23.352;2022-12-10T04:09:09;94044.09;;;9.28;90.57
41078;BME280;26823;42.662;23.352;2022-12-10T04:11:35;94040.31;;;9.29;90.15
41078;BME280;26823;42.662;23.352;2022-12-10T04:14:00;94034.38;;;9.27;90.81
41078;BME280;26823;42.662;23.352;2022-12-10T04:16:44;94051.81;;;9.35;90.12
41078;BME280;26823;42.662;23.352;2022-12-10T04:19:12;94044.69;;;9.25;90.87
41078;BME280;26823;42.662;23.352;2022-12-10T04:21:39;94044.06;;;8.85;93.30
41078;BME280;26823;42.662;23.352;2022-12-10T04:24:26;94042.44;;;9.08;93.20
41078;BME280;26823;42.662;23.352;2022-12-10T04:29:43;94035.84;;;9.19;93.32
41078;BME280;26823;42.662;23.352;2022-12-10T04:32:09;94052.31;;;9.18;93.74
41078;BME280;26823;42.662;23.352;2022-12-10T04:34:34;94061.56;;;9.11;94.42
41078;BME280;26823;42.662;23.352;2022-12-10T04:37:01;94066.53;;;9.23;94.56
41078;BME280;26823;42.662;23.352;2022-12-10T04:39:26;94051.78;;;9.16;95.51
41078;BME280;26823;42.662;23.352;2022-12-10T04:41:52;94038.66;;;9.09;96.71
41078;BME280;26823;42.662;23.352;2022-12-10T04:44:18;94053.22;;;9.08;97.43
41078;BME280;26823;42.662;23.352;2022-12-10T04:46:44;94062.75;;;9.00;98.17
41078;BME280;26823;42.662;23.352;2022-12-10T04:49:10;94061.72;;;8.96;98.67
41078;BME280;26823;42.662;23.352;2022-12-10T04:51:36;94071.38;;;9.02;99.73
41078;BME280;26823;42.662;23.352;2022-12-10T04:54:01;94066.59;;;8.94;99.57
41078;BME280;26823;42.662;23.352;2022-12-10T04:56:27;94068.31;;;9.09;100.00
41078;BME280;26823;42.662;23.352;2022-12-10T04:58:55;94048.38;;;8.86;99.57
41078;BME280;26823;42.662;23.352;2022-12-10T05:01:20;94064.81;;;8.84;100.00
41078;BME280;26823;42.662;23.352;2022-12-10T05:03:46;94059.63;;;8.63;100.00
41078;BME280;26823;42.662;23.352;2022-12-10T05:06:14;94059.81;;;8.72;100.00
41078;BME280;26823;42.662;23.352;2022-12-10T05:08:40;94059.53;;;8.74;100.00
41078;BME280;26823;42.662;23.352;2022-12-10T05:11:17;94054.91;;;8.79;100.00
41078;BME280;26823;42.662;23.352;2022-12-10T05:13:44;94061.91;;;8.80;100.00
41078;BME280;26823;42.662;23.352;2022-12-10T05:16:12;94057.84;;;8.83;100.00
41078;BME280;26823;42.662;23.352;2022-12-10T05:18:38;94061.72;;;8.96;100.00
41078;BME280;26823;42.662;23.352;2022-12-10T05:21:06;94049.69;;;8.88;100.00
41078;BME280;26823;42.662;23.352;2022-12-10T05:23:33;94047.53;;;8.85;100.00
41078;BME280;26823;42.662;23.352;2022-12-10T05:28:28;94036.97;;;8.64;100.00
41078;BME280;26823;42.662;23.352;2022-12-10T05:30:54;94039.25;;;8.52;100.00
41078;BME280;26823;42.662;23.352;2022-12-10T05:33:19;94037.13;;;8.49;100.00
41078;BME280;26823;42.662;23.352;2022-12-10T05:35:56;94055.84;;;8.64;100.00
41078;BME280;26823;42.662;23.352;2022-12-10T05:38:30;94051.34;;;8.55;100.00
41078;BME280;26823;42.662;23.352;2022-12-10T05:41:01;94050.41;;;8.70;100.00
41078;BME280;26823;42.662;23.352;2022-12-10T05:43:27;94051.03;;;8.61;100.00
41078;BME280;26823;42.662;23.352;2022-12-10T05:45:52;94035.19;;;8.55;100.00
41078;BME280;26823;42.662;23.352;2022-12-10T05:48:18;94053.38;;;8.68;100.00
41078;BME280;26823;42.662;23.352;2022-12-10T05:50:44;94062.50;;;8.72;100.00
41078;BME280;26823;42.662;23.352;2022-12-10T05:53:09;94066.16;;;8.87;100.00
41078;BME280;26823;42.662;23.352;2022-12-10T05:55:35;94071.03;;;8.85;100.00
41078;BME280;26823;42.662;23.352;2022-12-10T05:58:00;94053.81;;;8.80;100.00
41078;BME280;26823;42.662;23.352;2022-12-10T06:00:27;94063.47;;;8.87;100.00
41078;BME280;26823;42.662;23.352;2022-12-10T06:02:53;94064.72;;;8.94;100.00
41078;BME280;26823;42.662;23.352;2022-12-10T06:05:19;94074.41;;;8.95;100.00
41078;BME280;26823;42.662;23.352;2022-12-10T06:07:44;94083.88;;;8.93;100.00
41078;BME280;26823;42.662;23.352;2022-12-10T06:10:10;94077.69;;;8.92;100.00
41078;BME280;26823;42.662;23.352;2022-12-10T06:12:36;94071.63;;;9.06;100.00
41078;BME280;26823;42.662;23.352;2022-12-10T06:15:03;94066.31;;;8.95;100.00
41078;BME280;26823;42.662;23.352;2022-12-10T06:17:29;94074.63;;;8.99;100.00
41078;BME280;26823;42.662;23.352;2022-12-10T06:19:54;94049.38;;;8.90;100.00
41078;BME280;26823;42.662;23.352;2022-12-10T06:22:20;94054.50;;;8.91;100.00
41078;BME280;26823;42.662;23.352;2022-12-10T06:24:45;94079.97;;;9.04;100.00
41078;BME280;26823;42.662;23.352;2022-12-10T06:27:10;94056.03;;;8.97;100.00
41078;BME280;26823;42.662;23.352;2022-12-10T06:29:36;94063.91;;;8.94;100.00
41078;BME280;26823;42.662;23.352;2022-12-10T06:32:02;94061.38;;;9.03;100.00
41078;BME280;26823;42.662;23.352;2022-12-10T06:34:27;94054.13;;;9.03;100.00
41078;BME280;26823;42.662;23.352;2022-12-10T06:36:53;94030.69;;;8.98;100.00
41078;BME280;26823;42.662;23.352;2022-12-10T06:39:18;94031.72;;;9.03;100.00
41078;BME280;26823;42.662;23.352;2022-12-10T06:41:43;94036.31;;;9.02;100.00
41078;BME280;26823;42.662;23.352;2022-12-10T06:44:10;94049.97;;;9.11;100.00
41078;BME280;26823;42.662;23.352;2022-12-10T06:46:36;94056.16;;;9.11;100.00
41078;BME280;26823;42.662;23.352;2022-12-10T06:49:03;94055.25;;;8.97;100.00
41078;BME280;26823;42.662;23.352;2022-12-10T06:51:28;94056.09;;;8.92;100.00
41078;BME280;26823;42.662;23.352;2022-12-10T06:53:54;94073.84;;;8.98;100.00
41078;BME280;26823;42.662;23.352;2022-12-10T06:56:20;94075.16;;;9.01;100.00
41078;BME280;26823;42.662;23.352;2022-12-10T06:58:46;94085.94;;;9.01;100.00
41078;BME280;26823;42.662;23.352;2022-12-10T07:03:39;94092.59;;;9.09;100.00
41078;BME280;26823;42.662;23.352;2022-12-10T07:06:07;94056.16;;;8.87;100.00
41078;BME280;26823;42.662;23.352;2022-12-10T07:08:33;94068.09;;;9.05;100.00
41078;BME280;26823;42.662;23.352;2022-12-10T07:11:03;94075.28;;;9.15;100.00
41078;BME280;26823;42.662;23.352;2022-12-10T07:13:29;94077.91;;;9.20;100.00
41078;BME280;26823;42.662;23.352;2022-12-10T07:15:54;94074.84;;;9.27;100.00
41078;BME280;26823;42.662;23.352;2022-12-10T07:18:19;94069.53;;;9.22;100.00
41078;BME280;26823;42.662;23.352;2022-12-10T07:20:45;94072.97;;;9.27;100.00
41078;BME280;26823;42.662;23.352;2022-12-10T07:23:10;94051.69;;;9.02;100.00
41078;BME280;26823;42.662;23.352;2022-12-10T07:25:35;94058.66;;;9.27;100.00
41078;BME280;26823;42.662;23.352;2022-12-10T07:28:01;94051.03;;;9.34;100.00
41078;BME280;26823;42.662;23.352;2022-12-10T07:30:26;94039.72;;;9.32;100.00
41078;BME280;26823;42.662;23.352;2022-12-10T07:32:52;94058.63;;;9.51;100.00
41078;BME280;26823;42.662;23.352;2022-12-10T07:35:17;94030.16;;;9.40;100.00
41078;BME280;26823;42.662;23.352;2022-12-10T07:37:42;94022.63;;;9.18;100.00
41078;BME280;26823;42.662;23.352;2022-12-10T07:40:08;94042.53;;;9.22;100.00
41078;BME280;26823;42.662;23.352;2022-12-10T07:42:34;94040.75;;;9.36;100.00
41078;BME280;26823;42.662;23.352;2022-12-10T07:44:59;94043.31;;;9.27;100.00
41078;BME280;26823;42.662;23.352;2022-12-10T07:47:25;94055.13;;;9.32;100.00
41078;BME280;26823;42.662;23.352;2022-12-10T07:49:50;94045.72;;;9.48;100.00
41078;BME280;26823;42.662;23.352;2022-12-10T07:52:16;94051.91;;;9.49;100.00
41078;BME280;26823;42.662;23.352;2022-12-10T07:54:48;94053.53;;;9.50;100.00
41078;BME280;26823;42.662;23.352;2022-12-10T07:57:13;94048.88;;;9.55;100.00
41078;BME280;26823;42.662;23.352;2022-12-10T07:59:40;94041.81;;;9.59;100.00
41078;BME280;26823;42.662;23.352;2022-12-10T08:02:09;94039.97;;;9.74;100.00
41078;BME280;26823;42.662;23.352;2022-12-10T08:04:34;94032.16;;;9.91;100.00
41078;BME280;26823;42.662;23.352;2022-12-10T08:07:00;94016.34;;;9.85;100.00
41078;BME280;26823;42.662;23.352;2022-12-10T08:09:25;94028.16;;;9.89;100.00
41078;BME280;26823;42.662;23.352;2022-12-10T08:11:52;94024.72;;;10.02;100.00
41078;BME280;26823;42.662;23.352;2022-12-10T08:14:18;94016.09;;;10.00;100.00
41078;BME280;26823;42.662;23.352;2022-12-10T08:16:43;94000.41;;;10.02;100.00
41078;BME280;26823;42.662;23.352;2022-12-10T08:19:08;94023.31;;;10.05;100.00
41078;BME280;26823;42.662;23.352;2022-12-10T08:21:34;94026.16;;;10.14;100.00
41078;BME280;26823;42.662;23.352;2022-12-10T08:24:00;94019.31;;;10.02;100.00
41078;BME280;26823;42.662;23.352;2022-12-10T08:26:30;94019.28;;;10.21;100.00
41078;BME280;26823;42.662;23.352;2022-12-10T08:28:56;94010.59;;;10.05;100.00
41078;BME280;26823;42.662;23.352;2022-12-10T08:31:24;94010.09;;;10.22;100.00
41078;BME280;26823;42.662;23.352;2022-12-10T08:33:50;94008.44;;;10.07;100.00
41078;BME280;26823;42.662;23.352;2022-12-10T08:36:17;94010.06;;;9.89;100.00
41078;BME280;26823;42.662;23.352;2022-12-10T08:38:44;94001.44;;;9.68;100.00
41078;BME280;26823;42.662;23.352;2022-12-10T08:41:14;94013.09;;;10.02;100.00
41078;BME280;26823;42.662;23.352;2022-12-10T08:43:40;93997.69;;;10.02;100.00
41078;BME280;26823;42.662;23.352;2022-12-10T08:46:06;93988.69;;;10.07;100.00
41078;BME280;26823;42.662;23.352;2022-12-10T08:48:32;93989.50;;;10.07;100.00
41078;BME280;26823;42.662;23.352;2022-12-10T08:50:58;93975.56;;;10.33;100.00
41078;BME280;26823;42.662;23.352;2022-12-10T08:53:24;93995.38;;;10.62;100.00
41078;BME280;26823;42.662;23.352;2022-12-10T08:55:53;93984.06;;;10.73;99.83
41078;BME280;26823;42.662;23.352;2022-12-10T08:58:19;93975.66;;;10.89;98.46
41078;BME280;26823;42.662;23.352;2022-12-10T09:00:45;93982.56;;;11.09;97.69
41078;BME280;26823;42.662;23.352;2022-12-10T09:03:10;93969.53;;;11.11;96.66
41078;BME280;26823;42.662;23.352;2022-12-10T09:05:36;93945.41;;;11.01;96.15
41078;BME280;26823;42.662;23.352;2022-12-10T09:08:02;93987.66;;;11.24;95.19
41078;BME280;26823;42.662;23.352;2022-12-10T09:10:28;93970.19;;;11.31;94.91
41078;BME280;26823;42.662;23.352;2022-12-10T09:12:53;93962.91;;;11.31;94.64
41078;BME280;26823;42.662;23.352;2022-12-10T09:15:19;93945.56;;;11.04;95.73
41078;BME280;26823;42.662;23.352;2022-12-10T09:17:44;93967.84;;;11.01;96.26
41078;BME280;26823;42.662;23.352;2022-12-10T09:20:10;93936.16;;;10.74;96.84
41078;BME280;26823;42.662;23.352;2022-12-10T09:22:35;93969.34;;;10.93;97.85
41078;BME280;26823;42.662;23.352;2022-12-10T09:25:07;93980.84;;;11.13;97.05
41078;BME280;26823;42.662;23.352;2022-12-10T09:27:35;93984.56;;;11.31;96.23
41078;BME280;26823;42.662;23.352;2022-12-10T09:30:03;93944.72;;;11.32;95.45
41078;BME280;26823;42.662;23.352;2022-12-10T09:32:29;93923.16;;;11.40;93.94
41078;BME280;26823;42.662;23.352;2022-12-10T09:34:54;93951.25;;;11.31;95.05
41078;BME280;26823;42.662;23.352;2022-12-10T09:37:20;93916.44;;;11.38;94.90
41078;BME280;26823;42.662;23.352;2022-12-10T09:39:45;93951.84;;;11.78;93.59
41078;BME280;26823;42.662;23.352;2022-12-10T09:47:29;93905.81;;;12.01;91.32
41078;BME280;26823;42.662;23.352;2022-12-10T09:52:36;93932.50;;;12.16;91.89
41078;BME280;26823;42.662;23.352;2022-12-10T09:55:12;93915.56;;;12.42;90.69
41078;BME280;26823;42.662;23.352;2022-12-10T09:57:41;93924.34;;;12.88;89.83
41078;BME280;26823;42.662;23.352;2022-12-10T10:00:25;93927.25;;;13.67;85.41
41078;BME280;26823;42.662;23.352;2022-12-10T10:02:55;93926.44;;;14.01;83.88
41078;BME280;26823;42.662;23.352;2022-12-10T10:05:28;93902.28;;;14.65;79.39
41078;BME280;26823;42.662;23.352;2022-12-10T10:08:00;93906.34;;;15.19;77.21
41078;BME280;26823;42.662;23.352;2022-12-10T10:10:30;93901.31;;;15.29;74.15
41078;BME280;26823;42.662;23.352;2022-12-10T10:15:38;93923.94;;;17.72;66.21
41078;BME280;26823;42.662;23.352;2022-12-10T10:18:13;93928.22;;;17.57;64.22
41078;BME280;26823;42.662;23.352;2022-12-10T10:20:40;93922.59;;;17.66;64.06
41078;BME280;26823;42.662;23.352;2022-12-10T10:23:08;93898.09;;;17.04;64.92
41078;BME280;26823;42.662;23.352;2022-12-10T10:25:38;93911.72;;;16.33;68.54
41078;BME280;26823;42.662;23.352;2022-12-10T10:28:03;93898.81;;;15.88;70.40
41078;BME280;26823;42.662;23.352;2022-12-10T10:30:29;93888.75;;;15.37;71.73
41078;BME280;26823;42.662;23.352;2022-12-10T10:32:56;93887.41;;;15.22;73.41
41078;BME280;26823;42.662;23.352;2022-12-10T10:35:29;93865.78;;;14.66;75.49
41078;BME280;26823;42.662;23.352;2022-12-10T10:37:58;93875.19;;;14.77;76.00
41078;BME280;26823;42.662;23.352;2022-12-10T10:40:40;93873.16;;;14.65;77.60
41078;BME280;26823;42.662;23.352;2022-12-10T10:43:14;93863.59;;;13.07;82.59
41078;BME280;26823;42.662;23.352;2022-12-10T10:45:58;93852.19;;;12.69;86.46
41078;BME280;26823;42.662;23.352;2022-12-10T10:48:26;93847.47;;;13.19;83.60
41078;BME280;26823;42.662;23.352;2022-12-10T10:53:50;93864.13;;;13.52;82.98
41078;BME280;26823;42.662;23.352;2022-12-10T11:01:18;93827.53;;;13.50;82.53
41078;BME280;26823;42.662;23.352;2022-12-10T11:03:49;93852.75;;;13.68;82.38
41078;BME280;26823;42.662;23.352;2022-12-10T11:06:16;93814.44;;;13.43;83.84
41078;BME280;26823;42.662;23.352;2022-12-10T11:08:44;93792.97;;;13.77;81.81
41078;BME280;26823;42.662;23.352;2022-12-10T11:11:20;93821.00;;;14.16;80.58
41078;BME280;26823;42.662;23.352;2022-12-10T11:13:46;93821.81;;;14.08;80.83
41078;BME280;26823;42.662;23.352;2022-12-10T11:18:43;93799.34;;;14.28;80.64
41078;BME280;26823;42.662;23.352;2022-12-10T11:21:18;93796.78;;;14.32;80.90
41078;BME280;26823;42.662;23.352;2022-12-10T11:23:56;93787.66;;;14.66;79.19
41078;BME280;26823;42.662;23.352;2022-12-10T11:29:55;93781.78;;;14.64;78.58
41078;BME280;26823;42.662;23.352;2022-12-10T11:37:39;93785.22;;;14.74;78.44
41078;BME280;26823;42.662;23.352;2022-12-10T11:45:27;93781.53;;;14.78;79.40
41078;BME280;26823;42.662;23.352;2022-12-10T11:59:03;93787.16;;;14.73;78.54
41078;BME280;26823;42.662;23.352;2022-12-10T12:01:48;93768.84;;;14.82;77.79
41078;BME280;26823;42.662;23.352;2022-12-10T12:14:55;93754.06;;;14.62;78.85
41078;BME280;26823;42.662;23.352;2022-12-10T12:17:40;93754.44;;;14.52;79.20
41078;BME280;26823;42.662;23.352;2022-12-10T12:20:23;93752.19;;;14.24;80.71
41078;BME280;26823;42.662;23.352;2022-12-10T12:22:56;93745.19;;;14.14;80.97
41078;BME280;26823;42.662;23.352;2022-12-10T12:25:36;93746.50;;;14.08;82.59
41078;BME280;26823;42.662;23.352;2022-12-10T12:30:35;93728.47;;;14.03;81.88
41078;BME280;26823;42.662;23.352;2022-12-10T12:36:16;93718.88;;;13.97;82.09
41078;BME280;26823;42.662;23.352;2022-12-10T12:41:49;93702.00;;;14.13;81.93
41078;BME280;26823;42.662;23.352;2022-12-10T12:49:59;93688.16;;;13.97;82.67
41078;BME280;26823;42.662;23.352;2022-12-10T12:52:48;93694.38;;;14.06;81.93
41078;BME280;26823;42.662;23.352;2022-12-10T12:55:22;93695.47;;;14.14;81.57
41078;BME280;26823;42.662;23.352;2022-12-10T13:00:50;93657.63;;;13.61;84.01
41078;BME280;26823;42.662;23.352;2022-12-10T13:03:35;93676.22;;;13.89;83.31
41078;BME280;26823;42.662;23.352;2022-12-10T13:08:49;93658.94;;;13.94;84.06
41078;BME280;26823;42.662;23.352;2022-12-10T13:11:18;93646.78;;;13.61;85.17
41078;BME280;26823;42.662;23.352;2022-12-10T13:32:19;93664.75;;;13.18;87.62
41078;BME280;26823;42.662;23.352;2022-12-10T13:37:34;93619.84;;;13.30;87.62
41078;BME280;26823;42.662;23.352;2022-12-10T13:42:38;93587.06;;;12.96;88.74
41078;BME280;26823;42.662;23.352;2022-12-10T14:00:47;93617.66;;;13.23;87.64
41078;BME280;26823;42.662;23.352;2022-12-10T14:05:57;93622.47;;;13.17;88.23
41078;BME280;26823;42.662;23.352;2022-12-10T14:08:30;93612.03;;;13.28;87.21
41078;BME280;26823;42.662;23.352;2022-12-10T14:10:57;93595.13;;;13.23;87.04
41078;BME280;26823;42.662;23.352;2022-12-10T14:13:31;93595.59;;;13.25;87.36
41078;BME280;26823;42.662;23.352;2022-12-10T14:16:00;93609.00;;;13.21;87.55
41078;BME280;26823;42.662;23.352;2022-12-10T14:18:27;93608.56;;;13.19;87.52
41078;BME280;26823;42.662;23.352;2022-12-10T14:20:54;93607.13;;;13.21;87.45
41078;BME280;26823;42.662;23.352;2022-12-10T14:23:26;93599.75;;;13.22;87.05
41078;BME280;26823;42.662;23.352;2022-12-10T14:26:03;93606.00;;;13.23;86.88
41078;BME280;26823;42.662;23.352;2022-12-10T14:28:29;93590.16;;;13.25;86.99
41078;BME280;26823;42.662;23.352;2022-12-10T14:30:55;93579.31;;;13.16;86.98
41078;BME280;26823;42.662;23.352;2022-12-10T14:33:23;93583.31;;;13.18;86.64
41078;BME280;26823;42.662;23.352;2022-12-10T14:35:50;93566.56;;;13.16;87.38
41078;BME280;26823;42.662;23.352;2022-12-10T14:38:20;93578.22;;;13.17;86.67
41078;BME280;26823;42.662;23.352;2022-12-10T14:40:46;93573.16;;;13.07;86.64
41078;BME280;26823;42.662;23.352;2022-12-10T14:43:22;93576.78;;;13.11;87.15
41078;BME280;26823;42.662;23.352;2022-12-10T14:45:53;93567.56;;;13.03;87.19
41078;BME280;26823;42.662;23.352;2022-12-10T14:48:21;93558.16;;;13.00;86.81
41078;BME280;26823;42.662;23.352;2022-12-10T14:50:47;93547.97;;;12.88;88.00
41078;BME280;26823;42.662;23.352;2022-12-10T14:53:23;93552.34;;;12.63;88.73
41078;BME280;26823;42.662;23.352;2022-12-10T14:55:52;93547.56;;;12.60;89.24
41078;BME280;26823;42.662;23.352;2022-12-10T15:00:52;93550.75;;;12.53;89.16
41078;BME280;26823;42.662;23.352;2022-12-10T15:03:29;93561.44;;;12.67;89.11
41078;BME280;26823;42.662;23.352;2022-12-10T15:05:58;93542.13;;;12.51;89.11
41078;BME280;26823;42.662;23.352;2022-12-10T15:08:26;93574.66;;;12.69;89.46
41078;BME280;26823;42.662;23.352;2022-12-10T15:10:56;93571.19;;;12.60;89.65
41078;BME280;26823;42.662;23.352;2022-12-10T15:13:33;93570.84;;;12.70;89.98
41078;BME280;26823;42.662;23.352;2022-12-10T15:16:00;93570.22;;;12.73;89.16
41078;BME280;26823;42.662;23.352;2022-12-10T15:18:36;93570.34;;;12.77;88.29
41078;BME280;26823;42.662;23.352;2022-12-10T15:21:14;93564.31;;;12.62;89.44
41078;BME280;26823;42.662;23.352;2022-12-10T15:23:43;93551.69;;;12.66;89.58
41078;BME280;26823;42.662;23.352;2022-12-10T15:26:19;93558.53;;;12.72;89.16
41078;BME280;26823;42.662;23.352;2022-12-10T15:28:46;93557.78;;;12.54;89.69
41078;BME280;26823;42.662;23.352;2022-12-10T15:31:13;93554.41;;;12.66;89.42
41078;BME280;26823;42.662;23.352;2022-12-10T15:33:44;93520.00;;;12.49;89.16
41078;BME280;26823;42.662;23.352;2022-12-10T15:38:47;93538.81;;;12.37;90.70